Kilbirnie, United Kingdom
Current Conditions -  °F | °C
As of 1:20 AM on Saturday 29 Nov 2014 (Local Time) from EGPF Reporting Station
Overcast Overcast  
Wind Chill: 50°   Ceiling: 1800
Heat Index: 50°   Visibility: 6mi
Dew Point: 48°   Wind: 10mph
Humidity: 94%   Direction: 70°ENE
Pressure: 29.85"   Gusts: NA
Location:  55.75°N, 4.69°W
Report Text: EGPF 290120Z AUTO 07009KT 9999 OVC018 10/09 Q1011
Loading
Personal Weather Stations






























Interactive Weather Map New forecast layout! Learn more

10-Day Weather Forecast

Advertisements
Track Severe Weather on mobile